sensor_id;sensor_type;location;lat;lon;timestamp;temperature;humidity
45315;SHT31;31051;51.540;5.852;2023-10-19T00:02:12;11.1;92.1
45315;SHT31;31051;51.540;5.852;2023-10-19T00:15:12;11.2;92.0
45315;SHT31;31051;51.540;5.852;2023-10-19T00:28:11;11.3;91.9
45315;SHT31;31051;51.540;5.852;2023-10-19T00:41:10;11.5;92.0
45315;SHT31;31051;51.540;5.852;2023-10-19T00:54:10;11.6;92.1
45315;SHT31;31051;51.540;5.852;2023-10-19T01:07:09;11.7;92.1
45315;SHT31;31051;51.540;5.852;2023-10-19T01:20:08;11.8;92.2
45315;SHT31;31051;51.540;5.852;2023-10-19T01:33:08;11.9;92.1
45315;SHT31;31051;51.540;5.852;2023-10-19T01:46:07;12.1;92.4
45315;SHT31;31051;51.540;5.852;2023-10-19T01:59:06;12.3;92.5
45315;SHT31;31051;51.540;5.852;2023-10-19T02:12:06;12.4;92.4
45315;SHT31;31051;51.540;5.852;2023-10-19T02:25:05;12.6;92.7
45315;SHT31;31051;51.540;5.852;2023-10-19T02:38:04;12.9;92.8
45315;SHT31;31051;51.540;5.852;2023-10-19T02:51:04;13.1;92.8
45315;SHT31;31051;51.540;5.852;2023-10-19T03:04:03;13.3;92.8
45315;SHT31;31051;51.540;5.852;2023-10-19T03:17:02;13.6;92.6
45315;SHT31;31051;51.540;5.852;2023-10-19T03:30:02;13.7;92.6
45315;SHT31;31051;51.540;5.852;2023-10-19T03:43:01;13.9;92.3
45315;SHT31;31051;51.540;5.852;2023-10-19T03:56:00;14.0;92.0
45315;SHT31;31051;51.540;5.852;2023-10-19T04:09:00;14.0;91.6
45315;SHT31;31051;51.540;5.852;2023-10-19T04:21:59;14.1;91.3
45315;SHT31;31051;51.540;5.852;2023-10-19T04:34:59;14.1;91.2
45315;SHT31;31051;51.540;5.852;2023-10-19T04:47:58;14.2;90.8
45315;SHT31;31051;51.540;5.852;2023-10-19T05:00:57;14.2;90.3
45315;SHT31;31051;51.540;5.852;2023-10-19T05:13:57;14.4;89.4
45315;SHT31;31051;51.540;5.852;2023-10-19T05:26:56;14.4;89.2
45315;SHT31;31051;51.540;5.852;2023-10-19T05:39:55;14.4;89.1
45315;SHT31;31051;51.540;5.852;2023-10-19T05:52:55;14.3;89.2
45315;SHT31;31051;51.540;5.852;2023-10-19T06:05:54;14.3;89.1
45315;SHT31;31051;51.540;5.852;2023-10-19T06:18:54;14.3;89.0
45315;SHT31;31051;51.540;5.852;2023-10-19T06:31:53;14.3;89.0
45315;SHT31;31051;51.540;5.852;2023-10-19T06:44:52;14.3;89.0
45315;SHT31;31051;51.540;5.852;2023-10-19T06:57:52;14.4;88.9
45315;SHT31;31051;51.540;5.852;2023-10-19T07:10:51;14.5;88.9
45315;SHT31;31051;51.540;5.852;2023-10-19T07:23:50;14.6;88.9
45315;SHT31;31051;51.540;5.852;2023-10-19T07:36:50;14.9;87.9
45315;SHT31;31051;51.540;5.852;2023-10-19T07:49:49;15.1;87.4
45315;SHT31;31051;51.540;5.852;2023-10-19T08:02:48;15.2;87.4
45315;SHT31;31051;51.540;5.852;2023-10-19T08:15:47;15.4;87.0
45315;SHT31;31051;51.540;5.852;2023-10-19T08:28:36;15.5;86.2
45315;SHT31;31051;51.540;5.852;2023-10-19T08:41:35;15.6;86.1
45315;SHT31;31051;51.540;5.852;2023-10-19T08:54:24;15.6;86.7
45315;SHT31;31051;51.540;5.852;2023-10-19T09:07:22;16.3;86.1
45315;SHT31;31051;51.540;5.852;2023-10-19T09:20:12;16.9;81.5
45315;SHT31;31051;51.540;5.852;2023-10-19T09:33:11;17.0;81.5
45315;SHT31;31051;51.540;5.852;2023-10-19T09:46:10;17.3;79.8
45315;SHT31;31051;51.540;5.852;2023-10-19T09:59:09;17.3;79.3
45315;SHT31;31051;51.540;5.852;2023-10-19T10:11:57;17.5;79.5
45315;SHT31;31051;51.540;5.852;2023-10-19T10:24:46;17.7;78.1
45315;SHT31;31051;51.540;5.852;2023-10-19T10:37:46;17.6;79.5
45315;SHT31;31051;51.540;5.852;2023-10-19T10:50:44;17.7;79.4
45315;SHT31;31051;51.540;5.852;2023-10-19T11:03:34;17.9;79.1
45315;SHT31;31051;51.540;5.852;2023-10-19T11:16:32;18.0;78.4
45315;SHT31;31051;51.540;5.852;2023-10-19T11:29:20;17.8;77.4
45315;SHT31;31051;51.540;5.852;2023-10-19T11:42:10;18.1;77.4
45315;SHT31;31051;51.540;5.852;2023-10-19T11:55:08;18.2;76.9
45315;SHT31;31051;51.540;5.852;2023-10-19T12:07:57;18.2;77.4
45315;SHT31;31051;51.540;5.852;2023-10-19T12:20:45;17.9;78.6
45315;SHT31;31051;51.540;5.852;2023-10-19T12:33:34;17.8;79.3
45315;SHT31;31051;51.540;5.852;2023-10-19T12:46:34;17.7;79.5
45315;SHT31;31051;51.540;5.852;2023-10-19T12:59:32;17.8;80.6
45315;SHT31;31051;51.540;5.852;2023-10-19T13:12:20;17.7;79.5
45315;SHT31;31051;51.540;5.852;2023-10-19T13:25:09;17.5;79.8
45315;SHT31;31051;51.540;5.852;2023-10-19T13:37:57;17.2;82.4
45315;SHT31;31051;51.540;5.852;2023-10-19T13:50:46;17.1;83.4
45315;SHT31;31051;51.540;5.852;2023-10-19T14:03:46;16.9;84.4
45315;SHT31;31051;51.540;5.852;2023-10-19T14:16:44;16.7;85.9
45315;SHT31;31051;51.540;5.852;2023-10-19T14:29:34;16.7;86.8
45315;SHT31;31051;51.540;5.852;2023-10-19T14:42:32;16.6;87.7
45315;SHT31;31051;51.540;5.852;2023-10-19T14:55:20;16.7;87.7
45315;SHT31;31051;51.540;5.852;2023-10-19T15:08:09;17.0;88.3
45315;SHT31;31051;51.540;5.852;2023-10-19T15:20:58;17.0;87.5
45315;SHT31;31051;51.540;5.852;2023-10-19T15:33:57;16.8;87.7
45315;SHT31;31051;51.540;5.852;2023-10-19T15:46:57;16.8;87.6
45315;SHT31;31051;51.540;5.852;2023-10-19T15:59:56;16.9;87.5
45315;SHT31;31051;51.540;5.852;2023-10-19T16:12:54;16.5;87.7
45315;SHT31;31051;51.540;5.852;2023-10-19T16:25:44;16.2;86.9
45315;SHT31;31051;51.540;5.852;2023-10-19T16:38:43;15.9;88.5
45315;SHT31;31051;51.540;5.852;2023-10-19T16:51:43;15.9;89.6
45315;SHT31;31051;51.540;5.852;2023-10-19T17:04:42;15.8;90.0
45315;SHT31;31051;51.540;5.852;2023-10-19T17:17:41;15.8;89.7
45315;SHT31;31051;51.540;5.852;2023-10-19T17:30:41;15.6;89.0
45315;SHT31;31051;51.540;5.852;2023-10-19T17:43:39;15.4;88.0
45315;SHT31;31051;51.540;5.852;2023-10-19T17:56:28;15.2;89.5
45315;SHT31;31051;51.540;5.852;2023-10-19T18:09:28;15.2;91.1
45315;SHT31;31051;51.540;5.852;2023-10-19T18:22:27;15.1;91.0
45315;SHT31;31051;51.540;5.852;2023-10-19T18:35:27;15.0;90.6
45315;SHT31;31051;51.540;5.852;2023-10-19T18:48:26;14.9;91.5
45315;SHT31;31051;51.540;5.852;2023-10-19T19:01:25;14.7;89.3
45315;SHT31;31051;51.540;5.852;2023-10-19T19:14:25;14.6;88.8
45315;SHT31;31051;51.540;5.852;2023-10-19T19:27:24;14.5;89.2
45315;SHT31;31051;51.540;5.852;2023-10-19T19:40:24;14.5;89.7
45315;SHT31;31051;51.540;5.852;2023-10-19T19:53:23;14.5;89.8
45315;SHT31;31051;51.540;5.852;2023-10-19T20:06:22;14.6;90.6
45315;SHT31;31051;51.540;5.852;2023-10-19T20:19:22;14.7;92.1
45315;SHT31;31051;51.540;5.852;2023-10-19T20:32:21;14.7;92.5
45315;SHT31;31051;51.540;5.852;2023-10-19T20:45:20;14.7;92.3
45315;SHT31;31051;51.540;5.852;2023-10-19T20:58:20;14.6;92.5
45315;SHT31;31051;51.540;5.852;2023-10-19T21:11:19;14.6;91.9
45315;SHT31;31051;51.540;5.852;2023-10-19T21:24:18;14.6;91.7
45315;SHT31;31051;51.540;5.852;2023-10-19T21:37:18;14.6;92.0
45315;SHT31;31051;51.540;5.852;2023-10-19T21:50:17;14.6;92.3
45315;SHT31;31051;51.540;5.852;2023-10-19T22:03:16;14.7;91.9
45315;SHT31;31051;51.540;5.852;2023-10-19T22:16:05;14.8;91.8
45315;SHT31;31051;51.540;5.852;2023-10-19T22:29:04;14.8;91.7
45315;SHT31;31051;51.540;5.852;2023-10-19T22:42:04;14.7;91.9
45315;SHT31;31051;51.540;5.852;2023-10-19T22:55:03;14.8;91.7
45315;SHT31;31051;51.540;5.852;2023-10-19T23:08:02;14.9;91.2
45315;SHT31;31051;51.540;5.852;2023-10-19T23:21:02;15.0;90.7
45315;SHT31;31051;51.540;5.852;2023-10-19T23:34:01;15.1;90.1
45315;SHT31;31051;51.540;5.852;2023-10-19T23:47:01;14.9;90.2
